FSIA/SEZ METAR and TAF weather

Enter ICAO airport designator
Station Type Date Time Source
FSIA METAR 2020/02/21 00:00 UTC NOAA

FSIA 210000Z VRB01KT 9999 FEW022 28/24 Q1008 NOSIG


Station Type Date Time Source
FSIA Decoded METAR 2020/02/21 00:00 UTC NOAA

Seychelles Inter-National Airport, Seychelles (FSIA) 04-40S 055-31E 3M
Feb 20, 2020 - 07:00 PM EST / 2020.02.21 0000 UTC
Wind: Variable at 1 MPH (1 KT):0
Visibility: greater than 7 mile(s):0
Sky conditions: mostly clear
Temperature: 82 F (28 C)
Dew Point: 75 F (24 C)
Relative Humidity: 78%
Pressure (altimeter): 29.77 in. Hg (1008 hPa)
ob: FSIA 210000Z VRB01KT 9999 FEW022 28/24 Q1008 NOSIG
cycle: 0

Station Type Date Time Source
FSIA TAF 2020/02/20 18:09 UTC NOAA

TAF FSIA 201701Z 2018/2118 31005KT 9999 FEW018CB SCT020
TEMPO 2018/2023 8000 -SHRA FEW010 FEW016CB BKN018

Example: see airport list